createdAt,value
2019-03-06T00:01:40.404Z,99818.63
2019-03-06T00:04:09.949Z,99824.38
2019-03-06T00:06:39.168Z,99826.63
2019-03-06T00:09:08.943Z,99821.98
2019-03-06T00:11:38.088Z,99824.62
2019-03-06T00:14:07.326Z,99821.52
2019-03-06T00:16:36.519Z,99816.70
2019-03-06T00:19:05.759Z,99814.35
2019-03-06T00:21:34.919Z,99808.90
2019-03-06T00:24:04.251Z,99810.59
2019-03-06T00:26:33.373Z,99808.67
2019-03-06T00:29:02.662Z,99817.16
2019-03-06T00:31:31.777Z,99817.99
2019-03-06T00:34:12.105Z,99812.59
2019-03-06T00:36:41.462Z,99817.48
2019-03-06T00:39:11.489Z,99818.70
2019-03-06T00:41:46.631Z,99815.39
2019-03-06T00:44:15.661Z,99819.44
2019-03-06T00:46:44.770Z,99818.82
2019-03-06T00:49:13.965Z,99814.01
2019-03-06T00:51:43.319Z,99802.85
2019-03-06T00:54:12.539Z,99788.23
2019-03-06T00:56:41.703Z,99792.28
2019-03-06T00:59:11.109Z,99787.55
2019-03-06T01:01:40.184Z,99789.74
2019-03-06T01:04:09.251Z,99793.19
2019-03-06T01:06:38.825Z,99791.12
2019-03-06T01:09:08.892Z,99788.27
2019-03-06T01:11:38.150Z,99790.92
2019-03-06T01:14:07.276Z,99783.59
2019-03-06T01:16:36.711Z,99784.30
2019-03-06T01:19:06.135Z,99785.01
2019-03-06T01:21:35.739Z,99780.90
2019-03-06T01:24:05.083Z,99769.45
2019-03-06T01:26:34.148Z,99770.25
2019-03-06T01:29:03.416Z,99771.75
2019-03-06T01:31:32.815Z,99767.52
2019-03-06T01:34:18.796Z,99759.60
2019-03-06T01:37:07.878Z,99756.84
2019-03-06T01:39:52.543Z,99759.55
2019-03-06T01:42:39.149Z,99749.77
2019-03-06T01:45:10.471Z,99750.65
2019-03-06T01:47:39.554Z,99742.26
2019-03-06T01:50:12.299Z,99735.00
2019-03-06T01:52:41.552Z,99731.48
2019-03-06T01:55:12.714Z,99734.63
2019-03-06T01:57:42.004Z,99724.44
2019-03-06T02:00:21.456Z,99725.81
2019-03-06T02:02:50.550Z,99725.02
2019-03-06T02:05:19.668Z,99721.83
2019-03-06T02:07:48.780Z,99710.82
2019-03-06T02:10:20.293Z,99702.59
2019-03-06T02:12:49.356Z,99692.91
2019-03-06T02:15:19.199Z,99694.02
2019-03-06T02:17:48.404Z,99691.72
2019-03-06T02:20:18.217Z,99702.41
2019-03-06T02:22:47.284Z,99692.42
2019-03-06T02:25:16.393Z,99688.13
2019-03-06T02:27:45.735Z,99690.23
2019-03-06T02:30:18.130Z,99678.32
2019-03-06T02:32:47.190Z,99672.82
2019-03-06T02:35:16.253Z,99662.86
2019-03-06T02:37:45.362Z,99670.72
2019-03-06T02:40:14.766Z,99665.11
2019-03-06T02:42:43.804Z,99654.95
2019-03-06T02:45:14.289Z,99657.97
2019-03-06T02:47:43.334Z,99654.30
2019-03-06T02:50:14.516Z,99643.73
2019-03-06T02:52:43.747Z,99647.25
2019-03-06T02:55:12.955Z,99644.34
2019-03-06T02:57:46.630Z,99647.40
2019-03-06T03:00:49.872Z,99646.39
2019-03-06T03:03:27.644Z,99648.95
2019-03-06T03:06:01.240Z,99651.24
2019-03-06T03:08:30.568Z,99642.27
2019-03-06T03:10:59.657Z,99636.97
2019-03-06T03:13:28.911Z,99636.97
2019-03-06T03:15:58.191Z,99634.31
2019-03-06T03:18:27.297Z,99632.70
2019-03-06T03:20:56.714Z,99632.31
2019-03-06T03:23:25.743Z,99638.94
2019-03-06T03:25:54.998Z,99642.22
2019-03-06T03:28:24.107Z,99630.03
2019-03-06T03:30:53.583Z,99639.47
2019-03-06T03:33:22.912Z,99639.47
2019-03-06T03:35:52.150Z,99635.02
2019-03-06T03:38:21.208Z,99630.70
2019-03-06T03:40:52.148Z,99638.50
2019-03-06T03:43:21.456Z,99623.56
2019-03-06T03:45:50.574Z,99631.13
2019-03-06T03:48:19.838Z,99629.75
2019-03-06T03:50:49.394Z,99621.70
2019-03-06T03:53:18.514Z,99624.83
2019-03-06T03:55:47.555Z,99624.30
2019-03-06T03:58:16.804Z,99622.61
2019-03-06T04:00:45.966Z,99625.62
2019-03-06T04:03:15.151Z,99614.76
2019-03-06T04:05:44.436Z,99620.30
2019-03-06T04:08:13.879Z,99628.64
2019-03-06T04:10:42.905Z,99629.55
2019-03-06T04:13:12.138Z,99621.99
2019-03-06T04:15:41.338Z,99619.15
2019-03-06T04:18:10.822Z,99612.34
2019-03-06T04:20:39.902Z,99622.55
2019-03-06T04:23:09.037Z,99613.17
2019-03-06T04:25:38.168Z,99618.73
2019-03-06T04:28:07.541Z,99621.23
2019-03-06T04:30:36.577Z,99626.73
2019-03-06T04:33:05.801Z,99625.77
2019-03-06T04:35:35.033Z,99623.86
2019-03-06T04:38:04.344Z,99625.94
2019-03-06T04:40:33.627Z,99619.45
2019-03-06T04:43:04.776Z,99612.21
2019-03-06T04:45:33.890Z,99600.73
2019-03-06T04:48:03.157Z,99587.63
2019-03-06T04:50:32.309Z,99581.56
2019-03-06T04:53:01.674Z,99579.75
2019-03-06T04:55:30.902Z,99586.45
2019-03-06T04:58:00.062Z,99580.11
2019-03-06T05:00:29.284Z,99571.84
2019-03-06T05:02:58.431Z,99563.38
2019-03-06T05:05:27.779Z,99567.86
2019-03-06T05:07:56.873Z,99571.23
2019-03-06T05:10:26.050Z,99557.64
2019-03-06T05:12:55.381Z,99549.12
2019-03-06T05:15:24.483Z,99548.26
2019-03-06T05:17:59.159Z,99547.89
2019-03-06T05:20:28.223Z,99549.22
2019-03-06T05:22:57.292Z,99545.72
2019-03-06T05:25:26.646Z,99543.92
2019-03-06T05:27:55.680Z,99539.94
2019-03-06T05:30:26.817Z,99546.38
2019-03-06T05:32:56.733Z,99542.14
2019-03-06T05:35:32.859Z,99541.83
2019-03-06T05:38:26.689Z,99538.22
2019-03-06T05:40:56.067Z,99542.92
2019-03-06T05:43:25.129Z,99541.25
2019-03-06T05:45:54.339Z,99547.55
2019-03-06T05:48:23.560Z,99537.98
2019-03-06T05:50:52.622Z,99529.83
2019-03-06T05:53:21.941Z,99527.20
2019-03-06T05:55:51.198Z,99520.95
2019-03-06T05:58:20.307Z,99519.72
2019-03-06T06:00:49.540Z,99511.36
2019-03-06T06:03:18.777Z,99513.68
2019-03-06T06:05:48.063Z,99512.23
2019-03-06T06:08:17.290Z,99502.61
2019-03-06T06:10:46.475Z,99490.45
2019-03-06T06:13:15.824Z,99485.56
2019-03-06T06:15:44.900Z,99481.39
2019-03-06T06:18:13.996Z,99486.37
2019-03-06T06:20:43.436Z,99482.77
2019-03-06T06:23:34.512Z,99474.91
2019-03-06T06:26:03.635Z,99475.80
2019-03-06T06:28:32.749Z,99479.55
2019-03-06T06:31:01.789Z,99470.59
2019-03-06T06:33:30.913Z,99474.45
2019-03-06T06:36:00.188Z,99472.42
2019-03-06T06:38:29.469Z,99461.50
2019-03-06T06:40:58.523Z,99455.88
2019-03-06T06:43:27.850Z,99459.87
2019-03-06T06:45:57.016Z,99461.50
2019-03-06T06:48:28.062Z,99463.31
2019-03-06T06:51:44.589Z,99468.41
2019-03-06T06:54:45.282Z,99469.36
2019-03-06T06:57:23.410Z,99464.01
2019-03-06T07:00:55.534Z,99456.03
2019-03-06T07:04:27.208Z,99452.95
2019-03-06T07:07:15.394Z,99439.77
2019-03-06T07:10:15.752Z,99442.45
2019-03-06T07:13:06.873Z,99441.98
2019-03-06T07:16:07.166Z,99436.97
2019-03-06T07:19:01.364Z,99423.73
2019-03-06T07:21:55.837Z,99421.67
2019-03-06T07:24:56.178Z,99413.42
2019-03-06T07:27:46.254Z,99419.16
2019-03-06T07:30:43.234Z,99423.25
2019-03-06T07:33:30.122Z,99419.53
2019-03-06T07:36:16.760Z,99426.05
2019-03-06T07:38:45.869Z,99421.85
2019-03-06T07:41:37.301Z,99417.28
2019-03-06T07:44:30.183Z,99425.16
2019-03-06T07:47:11.584Z,99425.48
2019-03-06T07:50:04.783Z,99420.23
2019-03-06T07:52:47.662Z,99410.69
2019-03-06T07:55:32.681Z,99413.69
2019-03-06T07:58:37.955Z,99414.08
2019-03-06T08:01:16.667Z,99408.40
2019-03-06T08:03:47.947Z,99401.90
2019-03-06T08:06:17.028Z,99395.92
2019-03-06T08:08:46.277Z,99391.05
2019-03-06T08:11:43.418Z,99389.17
2019-03-06T08:14:30.091Z,99392.93
2019-03-06T08:17:18.259Z,99392.59
2019-03-06T08:20:05.311Z,99378.82
2019-03-06T08:22:59.548Z,99380.04
2019-03-06T08:25:57.009Z,99367.20
2019-03-06T08:28:26.292Z,99371.09
2019-03-06T08:31:00.372Z,99363.03
2019-03-06T08:33:29.600Z,99369.75
2019-03-06T08:35:58.829Z,99367.60
2019-03-06T08:38:28.321Z,99365.12
2019-03-06T08:41:04.378Z,99366.48
2019-03-06T08:43:28.480Z,99363.91
2019-03-06T08:46:34.927Z,99369.53
2019-03-06T08:49:24.567Z,99365.34
2019-03-06T08:52:12.160Z,99359.79
2019-03-06T08:54:50.426Z,99355.00
2019-03-06T08:57:37.092Z,99341.80
2019-03-06T09:00:40.671Z,99343.09
2019-03-06T09:03:31.602Z,99340.02
2019-03-06T09:06:22.402Z,99326.80
2019-03-06T09:09:09.483Z,99326.98
2019-03-06T09:12:03.880Z,99320.70
2019-03-06T09:14:51.029Z,99313.27
2019-03-06T09:17:38.362Z,99311.53
2019-03-06T09:20:42.169Z,99313.49
2019-03-06T09:23:35.928Z,99295.30
2019-03-06T09:26:39.846Z,99299.78
2019-03-06T09:29:19.147Z,99288.63
2019-03-06T09:32:10.296Z,99290.85
2019-03-06T09:34:47.609Z,99288.13
2019-03-06T09:37:50.690Z,99278.80
2019-03-06T09:40:39.099Z,99263.19
2019-03-06T09:43:25.365Z,99259.17
2019-03-06T09:46:04.727Z,99246.60
2019-03-06T09:48:42.843Z,99238.58
2019-03-06T09:51:30.872Z,99229.03
2019-03-06T09:54:28.005Z,99229.11
2019-03-06T09:57:12.514Z,99222.06
2019-03-06T09:59:49.990Z,99219.77
2019-03-06T10:02:56.568Z,99213.69
2019-03-06T10:05:43.547Z,99214.30
2019-03-06T10:08:23.937Z,99212.75
2019-03-06T10:11:12.676Z,99212.01
2019-03-06T10:13:56.863Z,99212.23
2019-03-06T10:16:30.657Z,99213.41
2019-03-06T10:19:20.899Z,99212.75
2019-03-06T10:21:50.025Z,99221.70
2019-03-06T10:24:19.202Z,99216.14
2019-03-06T10:26:48.586Z,99208.58
2019-03-06T10:29:17.692Z,99210.70
2019-03-06T10:31:46.951Z,99200.09
2019-03-06T10:34:16.293Z,99187.72
2019-03-06T10:36:45.486Z,99190.64
2019-03-06T10:39:17.467Z,99192.52
2019-03-06T10:41:47.016Z,99182.30
2019-03-06T10:44:16.330Z,99189.12
2019-03-06T10:46:45.456Z,99179.98
2019-03-06T10:49:14.541Z,99180.08
2019-03-06T10:51:43.634Z,99172.64
2019-03-06T10:54:12.936Z,99168.86
2019-03-06T10:56:42.227Z,99166.27
2019-03-06T10:59:11.314Z,99169.29
2019-03-06T11:01:40.761Z,99153.19
2019-03-06T11:04:22.873Z,99150.89
2019-03-06T11:06:52.231Z,99155.59
2019-03-06T11:09:22.259Z,99146.64
2019-03-06T11:11:51.403Z,99137.96
2019-03-06T11:14:20.456Z,99143.05
2019-03-06T11:16:49.630Z,99140.83
2019-03-06T11:19:20.887Z,99125.70
2019-03-06T11:21:50.043Z,99120.68
2019-03-06T11:24:19.214Z,99111.70
2019-03-06T11:26:48.710Z,99110.55
2019-03-06T11:29:19.353Z,99105.06
2019-03-06T11:31:48.885Z,99103.02
2019-03-06T11:34:18.247Z,99104.84
2019-03-06T11:36:48.147Z,99093.34
2019-03-06T11:39:17.467Z,99094.03
2019-03-06T11:41:46.790Z,99088.98
2019-03-06T11:44:15.900Z,99078.42
2019-03-06T11:46:45.086Z,99076.98
2019-03-06T11:49:14.279Z,99075.89
2019-03-06T11:51:43.516Z,99079.69
2019-03-06T11:54:12.924Z,99066.27
2019-03-06T11:56:42.270Z,99060.83
2019-03-06T11:59:11.380Z,99059.91
2019-03-06T12:01:47.953Z,99054.09
2019-03-06T12:04:12.693Z,99052.69
2019-03-06T12:06:44.166Z,99040.34
2019-03-06T12:09:34.053Z,99036.41
2019-03-06T12:12:04.540Z,99020.64
2019-03-06T12:14:33.692Z,99022.46
2019-03-06T12:17:03.084Z,99014.36
2019-03-06T12:19:32.279Z,98999.10
2019-03-06T12:22:01.529Z,99000.75
2019-03-06T12:24:30.629Z,98999.76
2019-03-06T12:27:00.666Z,98989.02
2019-03-06T12:29:30.035Z,98997.73
2019-03-06T12:31:59.471Z,98996.13
2019-03-06T12:34:28.716Z,98993.69
2019-03-06T12:36:59.712Z,98986.64
2019-03-06T12:39:29.086Z,98984.19
2019-03-06T12:41:58.898Z,98982.52
2019-03-06T12:44:28.263Z,98962.79
2019-03-06T12:46:58.599Z,98958.14
2019-03-06T12:49:29.198Z,98956.28
2019-03-06T12:51:58.413Z,98944.33
2019-03-06T12:54:27.485Z,98941.62
2019-03-06T12:56:56.956Z,98944.00
2019-03-06T12:59:26.192Z,98938.86
2019-03-06T13:01:55.249Z,98931.52
2019-03-06T13:04:24.543Z,98930.20
2019-03-06T13:06:53.660Z,98921.30
2019-03-06T13:09:22.729Z,98922.93
2019-03-06T13:11:51.880Z,98921.30
2019-03-06T13:14:21.371Z,98916.98
2019-03-06T13:16:50.440Z,98912.34
2019-03-06T13:19:19.616Z,98902.83
2019-03-06T13:21:48.727Z,98900.70
2019-03-06T13:24:17.911Z,98902.61
2019-03-06T13:26:47.039Z,98891.77
2019-03-06T13:29:16.430Z,98896.34
2019-03-06T13:31:45.691Z,98897.40
2019-03-06T13:34:32.411Z,98897.55
2019-03-06T13:37:01.722Z,98895.53
2019-03-06T13:39:30.815Z,98889.71
2019-03-06T13:42:00.020Z,98885.08
2019-03-06T13:44:29.227Z,98870.58
2019-03-06T13:46:58.436Z,98878.89
2019-03-06T13:49:27.715Z,98871.03
2019-03-06T13:51:56.976Z,98869.64
2019-03-06T13:54:26.458Z,98863.11
2019-03-06T13:56:57.374Z,98863.45
2019-03-06T13:59:26.451Z,98861.81
2019-03-06T14:01:56.536Z,98858.81
2019-03-06T14:04:26.111Z,98856.64
2019-03-06T14:06:55.405Z,98858.28
2019-03-06T14:09:25.041Z,98853.73
2019-03-06T14:11:54.462Z,98851.64
2019-03-06T14:14:24.326Z,98848.08
2019-03-06T14:16:53.402Z,98844.23
2019-03-06T14:19:22.786Z,98838.52
2019-03-06T14:21:51.971Z,98839.38
2019-03-06T14:24:21.830Z,98827.41
2019-03-06T14:26:50.900Z,98831.73
2019-03-06T14:29:20.415Z,98820.09
2019-03-06T14:31:49.939Z,98817.69
2019-03-06T14:34:19.055Z,98823.12
2019-03-06T14:36:48.143Z,98821.00
2019-03-06T14:39:26.082Z,98822.02
2019-03-06T14:41:55.580Z,98819.87
2019-03-06T14:44:25.349Z,98816.08
2019-03-06T14:46:55.272Z,98820.19
2019-03-06T14:49:24.575Z,98811.66
2019-03-06T14:51:54.105Z,98809.52
2019-03-06T14:54:23.221Z,98809.27
2019-03-06T14:56:52.302Z,98805.77
2019-03-06T14:59:21.407Z,98796.58
2019-03-06T15:01:50.819Z,98798.76
2019-03-06T15:04:19.962Z,98805.28
2019-03-06T15:06:49.222Z,98802.89
2019-03-06T15:09:22.805Z,98795.57
2019-03-06T15:11:52.088Z,98788.75
2019-03-06T15:14:22.242Z,98781.75
2019-03-06T15:16:51.373Z,98781.22
2019-03-06T15:19:21.037Z,98788.28
2019-03-06T15:21:51.505Z,98775.59
2019-03-06T15:24:20.806Z,98783.23
2019-03-06T15:26:50.826Z,98775.17
2019-03-06T15:29:20.861Z,98778.98
2019-03-06T15:31:51.595Z,98775.98
2019-03-06T15:34:20.822Z,98773.59
2019-03-06T15:36:51.280Z,98776.09
2019-03-06T15:39:43.552Z,98768.29
2019-03-06T15:42:11.329Z,98770.54
2019-03-06T15:44:41.505Z,98769.22
2019-03-06T15:47:10.913Z,98764.64
2019-03-06T15:49:40.251Z,98762.72
2019-03-06T15:52:11.170Z,98761.69
2019-03-06T15:54:40.496Z,98757.91
2019-03-06T15:57:10.176Z,98744.95
2019-03-06T15:59:43.403Z,98742.28
2019-03-06T16:02:13.010Z,98743.90
2019-03-06T16:04:42.577Z,98736.86
2019-03-06T16:07:11.659Z,98739.61
2019-03-06T16:09:41.007Z,98741.00
2019-03-06T16:12:12.213Z,98731.82
2019-03-06T16:14:41.115Z,98734.80
2019-03-06T16:17:10.221Z,98737.00
2019-03-06T16:19:39.529Z,98725.37
2019-03-06T16:22:08.799Z,98720.80
2019-03-06T16:24:40.741Z,98726.52
2019-03-06T16:27:10.012Z,98724.11
2019-03-06T16:29:39.824Z,98729.27
2019-03-06T16:32:09.078Z,98721.69
2019-03-06T16:34:38.350Z,98725.19
2019-03-06T16:37:07.752Z,98727.94
2019-03-06T16:39:37.467Z,98721.98
2019-03-06T16:42:06.582Z,98731.73
2019-03-06T16:44:35.880Z,98730.95
2019-03-06T16:47:07.048Z,98725.57
2019-03-06T16:49:35.918Z,98725.82
2019-03-06T16:52:05.188Z,98720.42
2019-03-06T16:54:34.473Z,98717.72
2019-03-06T16:57:03.932Z,98721.25
2019-03-06T16:59:33.152Z,98711.79
2019-03-06T17:02:02.576Z,98722.59
2019-03-06T17:04:32.372Z,98703.88
2019-03-06T17:07:01.620Z,98700.63
2019-03-06T17:09:30.739Z,98699.00
2019-03-06T17:11:59.910Z,98699.23
2019-03-06T17:14:29.581Z,98692.19
2019-03-06T17:16:58.743Z,98689.72
2019-03-06T17:19:27.799Z,98692.62
2019-03-06T17:21:56.910Z,98709.33
2019-03-06T17:24:26.086Z,98694.19
2019-03-06T17:26:55.255Z,98703.59
2019-03-06T17:29:25.392Z,98694.52
2019-03-06T17:31:54.790Z,98690.09
2019-03-06T17:34:24.116Z,98682.42
2019-03-06T17:36:53.256Z,98685.89
2019-03-06T17:39:22.368Z,98695.33
2019-03-06T17:41:51.743Z,98693.14
2019-03-06T17:44:22.712Z,98692.63
2019-03-06T17:46:52.068Z,98687.88
2019-03-06T17:49:21.523Z,98684.06
2019-03-06T17:51:50.672Z,98684.80
2019-03-06T17:54:19.933Z,98678.02
2019-03-06T17:56:49.031Z,98676.39
2019-03-06T17:59:18.311Z,98672.72
2019-03-06T18:01:47.793Z,98671.19
2019-03-06T18:04:20.445Z,98660.21
2019-03-06T18:06:49.579Z,98653.20
2019-03-06T18:09:19.036Z,98644.87
2019-03-06T18:11:48.567Z,98632.50
2019-03-06T18:14:19.417Z,98626.56
2019-03-06T18:16:48.546Z,98613.91
2019-03-06T18:19:17.658Z,98597.70
2019-03-06T18:21:46.955Z,98596.86
2019-03-06T18:24:16.162Z,98603.59
2019-03-06T18:26:45.283Z,98605.23
2019-03-06T18:29:14.689Z,98603.86
2019-03-06T18:31:43.829Z,98610.31
2019-03-06T18:34:13.297Z,98600.60
2019-03-06T18:36:42.311Z,98592.81
2019-03-06T18:39:18.249Z,98599.28
2019-03-06T18:41:47.842Z,98595.20
2019-03-06T18:44:17.015Z,98582.01
2019-03-06T18:46:46.106Z,98575.82
2019-03-06T18:49:15.359Z,98572.86
2019-03-06T18:51:44.411Z,98571.22
2019-03-06T18:54:13.934Z,98561.48
2019-03-06T18:56:43.064Z,98560.44
2019-03-06T18:59:12.241Z,98565.01
2019-03-06T19:01:41.580Z,98558.81
2019-03-06T19:04:10.876Z,98557.48
2019-03-06T19:06:41.410Z,98559.10
2019-03-06T19:09:11.007Z,98555.61
2019-03-06T19:11:40.150Z,98552.10
2019-03-06T19:14:09.518Z,98546.16
2019-03-06T19:16:38.746Z,98555.86
2019-03-06T19:19:07.818Z,98549.11
2019-03-06T19:21:37.069Z,98549.11
2019-03-06T19:24:06.478Z,98544.52
2019-03-06T19:26:36.012Z,98549.38
2019-03-06T19:29:05.586Z,98555.84
2019-03-06T19:31:34.983Z,98541.83
2019-03-06T19:34:04.149Z,98538.86
2019-03-06T19:36:33.352Z,98542.63
2019-03-06T19:39:02.859Z,98534.53
2019-03-06T19:41:32.176Z,98534.01
2019-03-06T19:44:01.246Z,98539.41
2019-03-06T19:46:30.611Z,98528.61
2019-03-06T19:49:02.418Z,98521.30
2019-03-06T19:51:31.751Z,98526.18
2019-03-06T19:54:00.937Z,98525.09
2019-03-06T19:56:30.514Z,98520.50
2019-03-06T19:58:59.698Z,98516.72
2019-03-06T20:01:28.948Z,98516.70
2019-03-06T20:03:58.173Z,98514.82
2019-03-06T20:06:27.524Z,98523.17
2019-03-06T20:08:57.096Z,98526.41
2019-03-06T20:11:28.190Z,98520.77
2019-03-06T20:13:57.767Z,98517.27
2019-03-06T20:16:26.863Z,98509.17
2019-03-06T20:18:56.007Z,98513.47
2019-03-06T20:21:25.241Z,98505.63
2019-03-06T20:23:54.485Z,98505.35
2019-03-06T20:26:24.065Z,98506.91
2019-03-06T20:28:53.211Z,98489.18
2019-03-06T20:31:22.476Z,98491.34
2019-03-06T20:33:51.787Z,98484.86
2019-03-06T20:36:20.967Z,98482.17
2019-03-06T20:38:50.741Z,98465.19
2019-03-06T20:41:20.023Z,98461.07
2019-03-06T20:43:49.249Z,98462.42
2019-03-06T20:46:18.462Z,98469.11
2019-03-06T20:48:47.623Z,98464.81
2019-03-06T20:51:17.011Z,98468.87
2019-03-06T20:53:46.110Z,98468.34
2019-03-06T20:56:15.593Z,98460.83
2019-03-06T20:58:44.884Z,98466.80
2019-03-06T21:01:14.010Z,98467.59
2019-03-06T21:03:43.310Z,98466.52
2019-03-06T21:06:12.526Z,98458.42
2019-03-06T21:08:41.744Z,98459.27
2019-03-06T21:11:10.894Z,98451.73
2019-03-06T21:13:40.310Z,98452.23
2019-03-06T21:16:09.421Z,98448.47
2019-03-06T21:18:39.179Z,98453.61
2019-03-06T21:21:08.451Z,98435.52
2019-03-06T21:23:37.796Z,98441.45
2019-03-06T21:26:07.008Z,98442.55
2019-03-06T21:28:36.218Z,98440.93
2019-03-06T21:31:05.393Z,98428.23
2019-03-06T21:33:35.067Z,98428.52
2019-03-06T21:36:04.239Z,98427.16
2019-03-06T21:38:33.426Z,98412.84
2019-03-06T21:41:02.597Z,98419.05
2019-03-06T21:43:31.720Z,98415.83
2019-03-06T21:46:01.459Z,98419.61
2019-03-06T21:48:30.775Z,98419.59
2019-03-06T21:51:00.109Z,98420.42
2019-03-06T21:53:30.030Z,98419.61
2019-03-06T21:55:59.282Z,98420.13
2019-03-06T21:58:29.639Z,98418.25
2019-03-06T22:00:58.972Z,98415.01
2019-03-06T22:03:28.248Z,98420.39
2019-03-06T22:05:57.366Z,98423.64
2019-03-06T22:08:26.639Z,98418.20
2019-03-06T22:10:55.984Z,98433.56
2019-03-06T22:13:25.145Z,98437.86
2019-03-06T22:15:54.436Z,98433.23
2019-03-06T22:18:23.928Z,98431.61
2019-03-06T22:20:53.028Z,98432.13
2019-03-06T22:23:22.202Z,98431.02
2019-03-06T22:25:51.515Z,98436.38
2019-03-06T22:28:20.731Z,98426.69
2019-03-06T22:30:50.102Z,98429.08
2019-03-06T22:33:19.479Z,98432.27
2019-03-06T22:35:48.680Z,98425.27
2019-03-06T22:38:17.815Z,98420.89
2019-03-06T22:40:47.420Z,98422.50
2019-03-06T22:43:16.757Z,98416.28
2019-03-06T22:45:46.083Z,98420.80
2019-03-06T22:48:17.394Z,98415.93
2019-03-06T22:50:46.758Z,98412.94
2019-03-06T22:53:15.857Z,98412.06
2019-03-06T22:55:44.987Z,98405.52
2019-03-06T22:58:14.929Z,98402.23
2019-03-06T23:00:55.764Z,98400.27
2019-03-06T23:03:26.551Z,98394.30
2019-03-06T23:05:55.710Z,98386.16
2019-03-06T23:08:25.034Z,98388.77
2019-03-06T23:10:54.758Z,98388.97
2019-03-06T23:13:24.385Z,98386.45
2019-03-06T23:15:53.673Z,98373.47
2019-03-06T23:18:23.005Z,98363.13
2019-03-06T23:20:52.696Z,98360.95
2019-03-06T23:23:22.624Z,98369.43
2019-03-06T23:25:52.033Z,98373.38
2019-03-06T23:28:21.803Z,98373.02
2019-03-06T23:30:50.843Z,98370.22
2019-03-06T23:33:19.941Z,98348.64
2019-03-06T23:35:49.007Z,98359.90
2019-03-06T23:38:18.061Z,98335.83
2019-03-06T23:40:47.297Z,98348.97
2019-03-06T23:43:16.572Z,98358.12
2019-03-06T23:45:45.725Z,98346.53
2019-03-06T23:48:15.013Z,98346.69
2019-03-06T23:50:44.269Z,98345.63
2019-03-06T23:53:14.528Z,98336.13
2019-03-06T23:55:43.642Z,98330.50
2019-03-06T23:58:12.842Z,98324.18
